Teyateyaneng, Lesotho
Current Conditions -  °F | °C
As of 9:00 PM on Sunday 23 Nov 2014 (Local Time) from FABL Reporting Station
Light Rain Light Rain  
Wind Chill: 57°   Ceiling: NA
Heat Index: 57°   Visibility: 6mi
Dew Point: 52°   Wind: 7mph
Humidity: 82%   Direction: 120°ESE
Pressure: 30.18"   Gusts: NA
Location:  29.15°S, 27.74°E
Report Text: FABL 231900Z AUTO 12006KT 090V180 9999 -RA ////// 14/11 Q1022 RESHRA
Loading
Personal Weather Stations






























Interactive Weather Map New forecast layout! Learn more

10-Day Weather Forecast

Advertisements
Track Severe Weather on mobile